NIUE

Details ICAO NIUE (IUE)
Name Niue
Region Niue
Timezone Pacific/Niue (UTC-11.0)
Plans Departing 14
Arriving 32
Stats Elevation 209 ft / 64 m (AMSL)
Location -19.079010° -169.925766°
Runways 1
Magnetic Variation 13.078° E
Sunrise 2017-12-13 16:37:34 UTC / 2017-12-13 05:37:34 Local
Sunset 2017-12-14 05:53:30 UTC / 2017-12-13 18:53:30 Local
Advertisement - Login to hide

Runways

ID Width Length Bearing (true) Bearing (mag) Surface Threshold Offset Overrun Length
10 148 ft / 45 m 7,644 ft / 2,330 m 109.90° 96.82° Asphalt 0 ft / 0 m 0 ft / 0 m
28 148 ft / 45 m 7,644 ft / 2,330 m 289.90° 276.82° Asphalt 0 ft / 0 m 0 ft / 0 m

Map

Weather


0- 5 10 15 20 25 30 35+ Temperature / ° C

Clouds and Precipitation
Forecast for 2017-12-13 18:00 UTC. Updated 2 hours ago

Ground ~20,000 ft ~40,000 ft Winds

METAR

NIUE 131400Z AUTO 14001KT //// ////// 20/20 Q1007

TAF

TAF NIUE 131118Z 1312/1412 17007KT 9999 SCT018 BKN030 PROB30 TEMPO 1406/1412 5000 SHRA BKN015

Frequencies

Tower 118.10 MHz FSS
Warning: Do not use this data for real-world aviation or navigation. No guarantee of current accuracy is given.